RYR7NM LROP-LIPH
Flight info
| Callsign | RYR7NM |
|---|---|
| Flight time | 1h 52m |
| Altitude | 32000 |
| Route | POLUN DCT LELTI DCT ANASA DCT SOMUN DCT OKSIG DCT NAKIT DCT LABIN L614 CHI N503 INBUT |
| Aircraft | B738/M-SDE2E3FGHIRWXY/LB1 |
Departure
| Time | 2026-04-25 10:52 |
|---|---|
| Airport | Bucharest Henri Coandă International Airport (LROP) |
Arrival
| Time | 2026-04-25 12:45 |
|---|---|
| Airport | Treviso Airport (LIPH) |
| Time | Latitude | Longitude | Altitude | Speed | Heading |
|---|---|---|---|---|---|
| 2026-04-25 09:46 | 44.56877 | 26.08684 | 321 ft | 0 kts | 173° |
| 2026-04-25 10:46 | 44.56874 | 26.08685 | 349 ft | 1 kts | 173° |
| 2026-04-25 10:46 | 44.56854 | 26.08688 | 320 ft | 4 kts | 173° |
| 2026-04-25 10:46 | 44.56826 | 26.08676 | 321 ft | 5 kts | 239° |
| 2026-04-25 10:47 | 44.56820 | 26.08630 | 321 ft | 5 kts | 264° |
| 2026-04-25 10:47 | 44.56818 | 26.08584 | 321 ft | 5 kts | 276° |
| 2026-04-25 10:47 | 44.56847 | 26.08561 | 322 ft | 5 kts | 354° |
| 2026-04-25 10:47 | 44.56889 | 26.08554 | 321 ft | 8 kts | 354° |
| 2026-04-25 10:48 | 44.56960 | 26.08544 | 321 ft | 13 kts | 354° |
| 2026-04-25 10:48 | 44.57056 | 26.08531 | 322 ft | 14 kts | 354° |
| 2026-04-25 10:48 | 44.57150 | 26.08516 | 322 ft | 13 kts | 354° |
| 2026-04-25 10:48 | 44.57240 | 26.08503 | 322 ft | 13 kts | 354° |
| 2026-04-25 10:49 | 44.57328 | 26.08491 | 320 ft | 13 kts | 354° |
| 2026-04-25 10:49 | 44.57385 | 26.08483 | 322 ft | 12 kts | 354° |
| 2026-04-25 10:49 | 44.57497 | 26.08466 | 319 ft | 12 kts | 354° |
| 2026-04-25 10:49 | 44.57546 | 26.08459 | 321 ft | 4 kts | 353° |
| 2026-04-25 10:50 | 44.57564 | 26.08456 | 322 ft | 2 kts | 354° |
| 2026-04-25 10:50 | 44.57580 | 26.08454 | 320 ft | 3 kts | 354° |
| 2026-04-25 10:50 | 44.57617 | 26.08448 | 322 ft | 8 kts | 354° |
| 2026-04-25 10:50 | 44.57662 | 26.08450 | 322 ft | 4 kts | 34° |
| 2026-04-25 10:51 | 44.57666 | 26.08483 | 322 ft | 2 kts | 88° |
| 2026-04-25 10:51 | 44.57667 | 26.08490 | 323 ft | 0 kts | 83° |
| 2026-04-25 10:51 | 44.57673 | 26.08558 | 323 ft | 33 kts | 84° |
| 2026-04-25 10:51 | 44.57727 | 26.09284 | 319 ft | 114 kts | 84° |
| 2026-04-25 10:52 | 44.57836 | 26.10705 | 351 ft | 176 kts | 82° |
| 2026-04-25 10:52 | 44.57971 | 26.12441 | 1191 ft | 171 kts | 86° |
| 2026-04-25 10:52 | 44.58074 | 26.14032 | 2231 ft | 165 kts | 86° |
| 2026-04-25 10:52 | 44.58182 | 26.15705 | 3095 ft | 174 kts | 85° |
| 2026-04-25 10:53 | 44.58346 | 26.17451 | 3928 ft | 189 kts | 81° |
| 2026-04-25 10:53 | 44.58526 | 26.19363 | 4448 ft | 216 kts | 83° |
| 2026-04-25 10:53 | 44.58712 | 26.21604 | 4726 ft | 246 kts | 83° |
| 2026-04-25 10:53 | 44.58925 | 26.24134 | 5080 ft | 272 kts | 83° |
| 2026-04-25 10:54 | 44.59135 | 26.26813 | 6033 ft | 279 kts | 84° |
| 2026-04-25 10:54 | 44.59141 | 26.28658 | 6706 ft | 280 kts | 101° |
| 2026-04-25 10:54 | 44.57950 | 26.31837 | 8013 ft | 285 kts | 135° |
| 2026-04-25 10:54 | 44.56344 | 26.33472 | 8889 ft | 288 kts | 159° |
| 2026-04-25 10:55 | 44.54399 | 26.34117 | 9902 ft | 288 kts | 176° |
| 2026-04-25 10:55 | 44.52379 | 26.34418 | 10636 ft | 301 kts | 178° |
| 2026-04-25 10:55 | 44.50192 | 26.34684 | 10862 ft | 330 kts | 178° |
| 2026-04-25 10:55 | 44.47832 | 26.34980 | 11369 ft | 346 kts | 177° |
| 2026-04-25 10:56 | 44.45408 | 26.35313 | 12184 ft | 352 kts | 177° |
| 2026-04-25 10:56 | 44.42957 | 26.35664 | 13094 ft | 355 kts | 176° |
| 2026-04-25 10:56 | 44.40481 | 26.35772 | 13896 ft | 358 kts | 191° |
| 2026-04-25 10:56 | 44.38162 | 26.34596 | 14631 ft | 356 kts | 215° |
| 2026-04-25 10:57 | 44.36321 | 26.32314 | 15430 ft | 355 kts | 233° |
| 2026-04-25 10:57 | 44.35106 | 26.29325 | 16177 ft | 356 kts | 251° |
| 2026-04-25 10:57 | 44.34360 | 26.26007 | 16963 ft | 360 kts | 255° |
| 2026-04-25 10:57 | 44.33677 | 26.22623 | 17687 ft | 365 kts | 256° |
| 2026-04-25 10:58 | 44.33000 | 26.19183 | 18404 ft | 370 kts | 256° |
| 2026-04-25 10:58 | 44.32310 | 26.15702 | 19059 ft | 373 kts | 256° |
| 2026-04-25 10:58 | 44.31603 | 26.12189 | 19738 ft | 377 kts | 256° |
| 2026-04-25 10:58 | 44.30882 | 26.08657 | 20385 ft | 380 kts | 255° |
| 2026-04-25 10:59 | 44.30146 | 26.05084 | 20968 ft | 386 kts | 255° |
| 2026-04-25 10:59 | 44.29397 | 26.01465 | 21592 ft | 390 kts | 255° |
| 2026-04-25 10:59 | 44.28638 | 25.97819 | 22228 ft | 393 kts | 255° |
| 2026-04-25 10:59 | 44.27871 | 25.94136 | 22845 ft | 397 kts | 255° |
| 2026-04-25 11:00 | 44.27358 | 25.91675 | 23239 ft | 399 kts | 255° |
| 2026-04-25 11:00 | 44.26278 | 25.86686 | 23905 ft | 405 kts | 256° |
| 2026-04-25 11:00 | 44.25516 | 25.82884 | 24367 ft | 409 kts | 256° |
| 2026-04-25 11:00 | 44.24722 | 25.79051 | 24861 ft | 412 kts | 256° |
| 2026-04-25 11:01 | 44.24092 | 25.75199 | 25290 ft | 413 kts | 265° |
| 2026-04-25 11:01 | 44.23901 | 25.71203 | 25769 ft | 414 kts | 271° |
| 2026-04-25 11:01 | 44.23900 | 25.67174 | 26216 ft | 417 kts | 273° |
| 2026-04-25 11:01 | 44.23949 | 25.63112 | 26660 ft | 420 kts | 273° |
| 2026-04-25 11:02 | 44.23987 | 25.59025 | 27122 ft | 422 kts | 272° |
| 2026-04-25 11:02 | 44.23998 | 25.54929 | 27723 ft | 421 kts | 272° |
| 2026-04-25 11:02 | 44.23992 | 25.52228 | 28154 ft | 419 kts | 272° |
| 2026-04-25 11:02 | 44.23970 | 25.48158 | 28714 ft | 420 kts | 272° |
| 2026-04-25 11:03 | 44.23938 | 25.44079 | 29230 ft | 421 kts | 272° |
| 2026-04-25 11:03 | 44.23890 | 25.38673 | 30024 ft | 419 kts | 272° |
| 2026-04-25 11:03 | 44.23865 | 25.35935 | 30385 ft | 418 kts | 272° |
| 2026-04-25 11:03 | 44.23829 | 25.31891 | 30918 ft | 416 kts | 272° |
| 2026-04-25 11:04 | 44.23791 | 25.27868 | 31431 ft | 414 kts | 273° |
| 2026-04-25 11:04 | 44.23751 | 25.23865 | 31930 ft | 413 kts | 273° |
| 2026-04-25 11:04 | 44.23755 | 25.19846 | 32010 ft | 416 kts | 275° |
| 2026-04-25 11:05 | 44.23977 | 25.13282 | 32027 ft | 412 kts | 277° |
| 2026-04-25 11:05 | 44.24174 | 25.08851 | 32029 ft | 408 kts | 277° |
| 2026-04-25 11:06 | 44.24517 | 25.00982 | 32041 ft | 405 kts | 277° |
| 2026-04-25 11:06 | 44.24665 | 24.97329 | 32039 ft | 405 kts | 277° |
| 2026-04-25 11:07 | 44.24965 | 24.89518 | 32044 ft | 406 kts | 277° |
| 2026-04-25 11:07 | 44.25124 | 24.85213 | 32043 ft | 407 kts | 276° |
| 2026-04-25 11:08 | 44.25292 | 24.80557 | 32045 ft | 409 kts | 276° |
| 2026-04-25 11:08 | 44.25572 | 24.72617 | 32039 ft | 410 kts | 276° |
| 2026-04-25 11:09 | 44.25847 | 24.64653 | 32040 ft | 412 kts | 276° |
| 2026-04-25 11:09 | 44.26118 | 24.56669 | 32037 ft | 412 kts | 276° |
| 2026-04-25 11:10 | 44.26383 | 24.48696 | 32028 ft | 411 kts | 276° |
| 2026-04-25 11:10 | 44.26642 | 24.40727 | 32044 ft | 410 kts | 276° |
| 2026-04-25 11:11 | 44.26896 | 24.32772 | 32043 ft | 410 kts | 276° |
| 2026-04-25 11:11 | 44.27127 | 24.25380 | 32043 ft | 410 kts | 276° |
| 2026-04-25 11:12 | 44.27295 | 24.19889 | 32042 ft | 410 kts | 276° |
| 2026-04-25 11:12 | 44.27534 | 24.11943 | 32035 ft | 410 kts | 276° |
| 2026-04-25 11:13 | 44.27766 | 24.04053 | 32041 ft | 410 kts | 276° |
| 2026-04-25 11:13 | 44.27995 | 23.96094 | 32042 ft | 410 kts | 276° |
| 2026-04-25 11:14 | 44.28218 | 23.88141 | 32044 ft | 410 kts | 275° |
| 2026-04-25 11:14 | 44.28435 | 23.80181 | 32044 ft | 410 kts | 275° |
| 2026-04-25 11:15 | 44.28648 | 23.72222 | 32044 ft | 410 kts | 275° |
| 2026-04-25 11:15 | 44.28855 | 23.64267 | 32046 ft | 410 kts | 275° |
| 2026-04-25 11:16 | 44.29156 | 23.52396 | 32043 ft | 409 kts | 275° |
| 2026-04-25 11:16 | 44.29351 | 23.44398 | 32041 ft | 409 kts | 275° |
| 2026-04-25 11:17 | 44.29536 | 23.36518 | 32039 ft | 409 kts | 275° |
| 2026-04-25 11:17 | 44.29718 | 23.28589 | 32041 ft | 409 kts | 275° |
| 2026-04-25 11:18 | 44.29898 | 23.20649 | 32043 ft | 409 kts | 275° |
| 2026-04-25 11:18 | 44.30074 | 23.12721 | 32047 ft | 409 kts | 275° |
| 2026-04-25 11:19 | 44.30246 | 23.04793 | 32045 ft | 409 kts | 275° |
| 2026-04-25 11:19 | 44.30412 | 22.96861 | 32046 ft | 409 kts | 275° |
| 2026-04-25 11:20 | 44.30572 | 22.88970 | 32037 ft | 408 kts | 275° |
| 2026-04-25 11:20 | 44.30727 | 22.81044 | 32045 ft | 408 kts | 275° |
| 2026-04-25 11:21 | 44.30877 | 22.73138 | 32045 ft | 407 kts | 275° |
| 2026-04-25 11:21 | 44.31025 | 22.65235 | 32035 ft | 407 kts | 275° |
| 2026-04-25 11:22 | 44.31140 | 22.58663 | 32037 ft | 407 kts | 275° |
| 2026-04-25 11:22 | 44.31655 | 22.49487 | 32043 ft | 404 kts | 281° |
| 2026-04-25 11:23 | 44.32447 | 22.41719 | 32043 ft | 404 kts | 281° |
| 2026-04-25 11:23 | 44.33242 | 22.33942 | 32031 ft | 404 kts | 281° |
| 2026-04-25 11:24 | 44.34006 | 22.26157 | 32044 ft | 405 kts | 281° |
| 2026-04-25 11:24 | 44.34751 | 22.18350 | 32034 ft | 406 kts | 280° |
| 2026-04-25 11:25 | 44.35487 | 22.10530 | 32048 ft | 406 kts | 280° |
| 2026-04-25 11:25 | 44.36218 | 22.02702 | 32048 ft | 406 kts | 280° |
| 2026-04-25 11:26 | 44.36943 | 21.94882 | 32051 ft | 406 kts | 280° |
| 2026-04-25 11:26 | 44.37662 | 21.87055 | 32056 ft | 406 kts | 280° |
| 2026-04-25 11:27 | 44.38377 | 21.79230 | 32052 ft | 406 kts | 280° |
| 2026-04-25 11:27 | 44.38966 | 21.72729 | 32057 ft | 406 kts | 280° |
| 2026-04-25 11:28 | 44.39790 | 21.63575 | 32061 ft | 406 kts | 280° |
| 2026-04-25 11:28 | 44.40483 | 21.55804 | 32059 ft | 405 kts | 279° |
| 2026-04-25 11:29 | 44.41174 | 21.47985 | 32052 ft | 405 kts | 279° |
| 2026-04-25 11:29 | 44.41860 | 21.40171 | 32052 ft | 404 kts | 279° |
| 2026-04-25 11:30 | 44.42539 | 21.32374 | 32056 ft | 404 kts | 279° |
| 2026-04-25 11:30 | 44.43213 | 21.24578 | 32055 ft | 403 kts | 279° |
| 2026-04-25 11:31 | 44.43881 | 21.16779 | 32057 ft | 404 kts | 279° |
| 2026-04-25 11:31 | 44.44546 | 21.08960 | 32055 ft | 404 kts | 279° |
| 2026-04-25 11:32 | 44.45204 | 21.01151 | 32049 ft | 404 kts | 279° |
| 2026-04-25 11:32 | 44.45854 | 20.93375 | 32057 ft | 404 kts | 279° |
| 2026-04-25 11:33 | 44.46502 | 20.85552 | 32053 ft | 404 kts | 279° |
| 2026-04-25 11:33 | 44.47145 | 20.77729 | 32057 ft | 405 kts | 279° |
| 2026-04-25 11:34 | 44.47783 | 20.69898 | 32055 ft | 405 kts | 279° |
| 2026-04-25 11:34 | 44.48416 | 20.62063 | 32063 ft | 405 kts | 279° |
| 2026-04-25 11:35 | 44.49044 | 20.54223 | 32063 ft | 405 kts | 279° |
| 2026-04-25 11:35 | 44.49667 | 20.46373 | 32058 ft | 405 kts | 278° |
| 2026-04-25 11:36 | 44.50280 | 20.38582 | 32064 ft | 406 kts | 278° |
| 2026-04-25 11:36 | 44.50898 | 20.30668 | 32055 ft | 406 kts | 278° |
| 2026-04-25 11:37 | 44.51501 | 20.22851 | 32057 ft | 406 kts | 278° |
| 2026-04-25 11:37 | 44.52104 | 20.14985 | 32064 ft | 406 kts | 278° |
| 2026-04-25 11:38 | 44.52700 | 20.07127 | 32063 ft | 405 kts | 278° |
| 2026-04-25 11:38 | 44.53291 | 19.99267 | 32063 ft | 405 kts | 278° |
| 2026-04-25 11:39 | 44.53876 | 19.91417 | 32058 ft | 405 kts | 278° |
| 2026-04-25 11:39 | 44.54456 | 19.83563 | 32063 ft | 405 kts | 278° |
| 2026-04-25 11:40 | 44.55030 | 19.75711 | 32069 ft | 405 kts | 278° |
| 2026-04-25 11:40 | 44.55599 | 19.67849 | 32073 ft | 405 kts | 278° |
| 2026-04-25 11:41 | 44.56164 | 19.59973 | 32072 ft | 405 kts | 277° |
| 2026-04-25 11:41 | 44.56723 | 19.52107 | 32061 ft | 405 kts | 277° |
| 2026-04-25 11:42 | 44.57276 | 19.44250 | 32067 ft | 405 kts | 277° |
| 2026-04-25 11:42 | 44.57825 | 19.36386 | 32071 ft | 405 kts | 277° |
| 2026-04-25 11:43 | 44.58369 | 19.28516 | 32070 ft | 405 kts | 277° |
| 2026-04-25 11:43 | 44.58909 | 19.20644 | 32061 ft | 405 kts | 277° |
| 2026-04-25 11:44 | 44.59441 | 19.12776 | 32062 ft | 404 kts | 277° |
| 2026-04-25 11:44 | 44.60190 | 19.04976 | 32072 ft | 402 kts | 281° |
| 2026-04-25 11:45 | 44.61167 | 18.97249 | 32069 ft | 402 kts | 282° |
| 2026-04-25 11:45 | 44.61985 | 18.90829 | 32068 ft | 402 kts | 281° |
| 2026-04-25 11:46 | 44.63103 | 18.81828 | 32068 ft | 402 kts | 281° |
| 2026-04-25 11:46 | 44.63895 | 18.75334 | 32065 ft | 402 kts | 281° |
| 2026-04-25 11:47 | 44.64830 | 18.67591 | 32070 ft | 402 kts | 281° |
| 2026-04-25 11:47 | 44.65760 | 18.59842 | 32078 ft | 402 kts | 281° |
| 2026-04-25 11:48 | 44.66685 | 18.52090 | 32066 ft | 402 kts | 281° |
| 2026-04-25 11:48 | 44.67599 | 18.44382 | 32056 ft | 402 kts | 281° |
| 2026-04-25 11:49 | 44.68543 | 18.36575 | 32069 ft | 402 kts | 281° |
| 2026-04-25 11:49 | 44.69445 | 18.28813 | 32072 ft | 402 kts | 280° |
| 2026-04-25 11:50 | 44.70338 | 18.21042 | 32061 ft | 402 kts | 280° |
| 2026-04-25 11:50 | 44.71232 | 18.13279 | 32063 ft | 403 kts | 280° |
| 2026-04-25 11:51 | 44.72121 | 18.05549 | 32057 ft | 403 kts | 280° |
| 2026-04-25 11:51 | 44.73017 | 17.97711 | 32067 ft | 403 kts | 280° |
| 2026-04-25 11:52 | 44.73897 | 17.89969 | 32063 ft | 404 kts | 279° |
| 2026-04-25 11:52 | 44.74781 | 17.82136 | 32069 ft | 405 kts | 279° |
| 2026-04-25 11:53 | 44.75660 | 17.74300 | 32065 ft | 405 kts | 279° |
| 2026-04-25 11:53 | 44.76552 | 17.66464 | 32052 ft | 405 kts | 280° |
| 2026-04-25 11:54 | 44.77415 | 17.58637 | 32055 ft | 404 kts | 279° |
| 2026-04-25 11:55 | 44.78690 | 17.46907 | 32056 ft | 404 kts | 279° |
| 2026-04-25 11:55 | 44.79541 | 17.39098 | 32048 ft | 403 kts | 279° |
| 2026-04-25 11:56 | 44.80379 | 17.31358 | 32051 ft | 403 kts | 279° |
| 2026-04-25 11:56 | 44.81221 | 17.23547 | 32047 ft | 403 kts | 279° |
| 2026-04-25 11:57 | 44.82056 | 17.15743 | 32049 ft | 403 kts | 279° |
| 2026-04-25 11:57 | 44.82890 | 17.07922 | 32053 ft | 403 kts | 279° |
| 2026-04-25 11:58 | 44.83716 | 17.00096 | 32051 ft | 404 kts | 279° |
| 2026-04-25 11:58 | 44.84597 | 16.92277 | 32056 ft | 404 kts | 280° |
| 2026-04-25 11:59 | 44.85518 | 16.84473 | 32048 ft | 404 kts | 279° |
| 2026-04-25 11:59 | 44.86387 | 16.76651 | 32050 ft | 403 kts | 279° |
| 2026-04-25 12:00 | 44.87710 | 16.65001 | 32047 ft | 403 kts | 280° |
| 2026-04-25 12:01 | 44.89017 | 16.53261 | 32052 ft | 402 kts | 279° |
| 2026-04-25 12:01 | 44.89881 | 16.45474 | 32040 ft | 402 kts | 276° |
| 2026-04-25 12:02 | 44.91028 | 16.33779 | 32044 ft | 403 kts | 279° |
| 2026-04-25 12:02 | 44.91926 | 16.25970 | 32037 ft | 403 kts | 279° |
| 2026-04-25 12:03 | 44.92800 | 16.18196 | 32036 ft | 403 kts | 279° |
| 2026-04-25 12:03 | 44.93677 | 16.10376 | 32047 ft | 403 kts | 276° |
| 2026-04-25 12:04 | 44.94445 | 16.02536 | 32037 ft | 403 kts | 278° |
| 2026-04-25 12:04 | 44.95283 | 15.94704 | 32037 ft | 403 kts | 278° |
| 2026-04-25 12:05 | 44.96119 | 15.86865 | 32038 ft | 403 kts | 278° |
| 2026-04-25 12:05 | 44.96941 | 15.79030 | 32035 ft | 403 kts | 277° |
| 2026-04-25 12:06 | 44.97751 | 15.71216 | 32030 ft | 402 kts | 277° |
| 2026-04-25 12:06 | 44.98554 | 15.63402 | 32037 ft | 402 kts | 277° |
| 2026-04-25 12:07 | 44.99351 | 15.55588 | 32032 ft | 401 kts | 277° |
| 2026-04-25 12:07 | 45.00143 | 15.47775 | 32034 ft | 401 kts | 277° |
| 2026-04-25 12:08 | 45.00924 | 15.40013 | 32036 ft | 401 kts | 277° |
| 2026-04-25 12:08 | 45.01705 | 15.32206 | 32029 ft | 401 kts | 277° |
| 2026-04-25 12:09 | 45.02477 | 15.24420 | 32031 ft | 401 kts | 277° |
| 2026-04-25 12:09 | 45.03246 | 15.16617 | 32046 ft | 400 kts | 277° |
| 2026-04-25 12:10 | 45.04010 | 15.08808 | 32046 ft | 401 kts | 277° |
| 2026-04-25 12:10 | 45.04769 | 15.00997 | 32050 ft | 401 kts | 277° |
| 2026-04-25 12:11 | 45.05521 | 14.93188 | 32058 ft | 401 kts | 277° |
| 2026-04-25 12:11 | 45.06269 | 14.85371 | 32059 ft | 401 kts | 277° |
| 2026-04-25 12:12 | 45.06887 | 14.78870 | 32054 ft | 401 kts | 277° |
| 2026-04-25 12:12 | 45.07750 | 14.69731 | 32052 ft | 401 kts | 276° |
| 2026-04-25 12:13 | 45.08481 | 14.61921 | 32054 ft | 400 kts | 276° |
| 2026-04-25 12:13 | 45.09206 | 14.54113 | 32045 ft | 400 kts | 276° |
| 2026-04-25 12:14 | 45.09926 | 14.46301 | 32051 ft | 400 kts | 276° |
| 2026-04-25 12:14 | 45.10641 | 14.38490 | 32051 ft | 400 kts | 276° |
| 2026-04-25 12:15 | 45.11350 | 14.30683 | 32054 ft | 399 kts | 276° |
| 2026-04-25 12:15 | 45.12052 | 14.22881 | 32051 ft | 400 kts | 276° |
| 2026-04-25 12:16 | 45.12751 | 14.15065 | 32053 ft | 400 kts | 276° |
| 2026-04-25 12:16 | 45.13443 | 14.07270 | 32045 ft | 392 kts | 276° |
| 2026-04-25 12:17 | 45.13777 | 14.03496 | 31992 ft | 381 kts | 276° |
| 2026-04-25 12:17 | 45.14102 | 13.99805 | 31733 ft | 374 kts | 276° |
| 2026-04-25 12:17 | 45.14421 | 13.96166 | 31408 ft | 370 kts | 276° |
| 2026-04-25 12:17 | 45.14735 | 13.92564 | 31078 ft | 367 kts | 276° |
| 2026-04-25 12:18 | 45.15045 | 13.88992 | 30745 ft | 364 kts | 276° |
| 2026-04-25 12:18 | 45.15352 | 13.85453 | 30408 ft | 361 kts | 276° |
| 2026-04-25 12:18 | 45.15656 | 13.81925 | 30060 ft | 359 kts | 276° |
| 2026-04-25 12:18 | 45.15957 | 13.78427 | 29668 ft | 356 kts | 276° |
| 2026-04-25 12:19 | 45.16449 | 13.72675 | 29057 ft | 351 kts | 276° |
| 2026-04-25 12:19 | 45.16837 | 13.68118 | 28577 ft | 346 kts | 276° |
| 2026-04-25 12:19 | 45.17124 | 13.64745 | 28235 ft | 343 kts | 276° |
| 2026-04-25 12:20 | 45.17407 | 13.61408 | 27886 ft | 340 kts | 276° |
| 2026-04-25 12:20 | 45.17686 | 13.58103 | 27545 ft | 337 kts | 276° |
| 2026-04-25 12:20 | 45.17964 | 13.54801 | 27208 ft | 336 kts | 275° |
| 2026-04-25 12:20 | 45.18236 | 13.51527 | 26868 ft | 334 kts | 275° |
| 2026-04-25 12:21 | 45.18484 | 13.48262 | 26522 ft | 332 kts | 271° |
| 2026-04-25 12:21 | 45.18191 | 13.45035 | 26179 ft | 331 kts | 253° |
| 2026-04-25 12:21 | 45.17278 | 13.42057 | 25847 ft | 331 kts | 238° |
| 2026-04-25 12:21 | 45.15925 | 13.39465 | 25533 ft | 333 kts | 233° |
| 2026-04-25 12:22 | 45.14449 | 13.36896 | 25197 ft | 338 kts | 232° |
| 2026-04-25 12:22 | 45.12941 | 13.34306 | 24842 ft | 342 kts | 232° |
| 2026-04-25 12:22 | 45.11434 | 13.31701 | 24490 ft | 342 kts | 232° |
| 2026-04-25 12:22 | 45.09937 | 13.29090 | 24129 ft | 341 kts | 232° |
| 2026-04-25 12:23 | 45.08451 | 13.26481 | 23780 ft | 340 kts | 232° |
| 2026-04-25 12:23 | 45.06972 | 13.23872 | 23388 ft | 339 kts | 233° |
| 2026-04-25 12:23 | 45.05503 | 13.21278 | 23008 ft | 337 kts | 233° |
| 2026-04-25 12:23 | 45.04041 | 13.18694 | 22649 ft | 336 kts | 233° |
| 2026-04-25 12:24 | 45.02589 | 13.16135 | 22301 ft | 332 kts | 233° |
| 2026-04-25 12:24 | 45.01150 | 13.13605 | 21955 ft | 328 kts | 232° |
| 2026-04-25 12:24 | 44.99797 | 13.11041 | 21611 ft | 323 kts | 243° |
| 2026-04-25 12:24 | 44.99065 | 13.08083 | 21336 ft | 317 kts | 260° |
| 2026-04-25 12:25 | 44.98972 | 13.05005 | 20985 ft | 314 kts | 275° |
| 2026-04-25 12:25 | 44.99274 | 13.01958 | 20676 ft | 311 kts | 278° |
| 2026-04-25 12:25 | 44.99625 | 12.98947 | 20354 ft | 309 kts | 278° |
| 2026-04-25 12:25 | 44.99976 | 12.95957 | 20036 ft | 307 kts | 278° |
| 2026-04-25 12:26 | 45.00316 | 12.92972 | 19731 ft | 309 kts | 278° |
| 2026-04-25 12:26 | 45.00537 | 12.90983 | 19526 ft | 310 kts | 278° |
| 2026-04-25 12:26 | 45.00867 | 12.87959 | 19209 ft | 312 kts | 278° |
| 2026-04-25 12:26 | 45.01193 | 12.84917 | 18890 ft | 314 kts | 278° |
| 2026-04-25 12:27 | 45.01517 | 12.81858 | 18565 ft | 314 kts | 278° |
| 2026-04-25 12:27 | 45.01839 | 12.78820 | 18219 ft | 312 kts | 278° |
| 2026-04-25 12:27 | 45.02157 | 12.75799 | 17855 ft | 310 kts | 278° |
| 2026-04-25 12:27 | 45.02471 | 12.72802 | 17529 ft | 307 kts | 278° |
| 2026-04-25 12:28 | 45.02782 | 12.69835 | 17206 ft | 304 kts | 278° |
| 2026-04-25 12:28 | 45.03090 | 12.66895 | 16899 ft | 301 kts | 278° |
| 2026-04-25 12:28 | 45.03394 | 12.63982 | 16589 ft | 298 kts | 278° |
| 2026-04-25 12:28 | 45.03696 | 12.61098 | 16287 ft | 295 kts | 278° |
| 2026-04-25 12:29 | 45.03994 | 12.58234 | 15985 ft | 293 kts | 278° |
| 2026-04-25 12:29 | 45.04292 | 12.55367 | 15693 ft | 296 kts | 278° |
| 2026-04-25 12:29 | 45.04592 | 12.52475 | 15392 ft | 298 kts | 278° |
| 2026-04-25 12:29 | 45.04895 | 12.49556 | 15079 ft | 301 kts | 278° |
| 2026-04-25 12:30 | 45.05198 | 12.46621 | 14772 ft | 303 kts | 278° |
| 2026-04-25 12:30 | 45.05503 | 12.43662 | 14466 ft | 305 kts | 278° |
| 2026-04-25 12:30 | 45.05811 | 12.40679 | 14153 ft | 308 kts | 278° |
| 2026-04-25 12:30 | 45.06120 | 12.37673 | 13830 ft | 310 kts | 278° |
| 2026-04-25 12:31 | 45.06426 | 12.34667 | 13479 ft | 307 kts | 278° |
| 2026-04-25 12:31 | 45.06755 | 12.31697 | 13130 ft | 304 kts | 278° |
| 2026-04-25 12:31 | 45.07285 | 12.28833 | 12782 ft | 302 kts | 296° |
| 2026-04-25 12:31 | 45.08546 | 12.26490 | 12486 ft | 300 kts | 317° |
| 2026-04-25 12:32 | 45.10177 | 12.24670 | 12204 ft | 297 kts | 322° |
| 2026-04-25 12:32 | 45.11837 | 12.22956 | 11887 ft | 295 kts | 322° |
| 2026-04-25 12:32 | 45.13489 | 12.21259 | 11584 ft | 292 kts | 322° |
| 2026-04-25 12:32 | 45.15102 | 12.19602 | 11286 ft | 289 kts | 322° |
| 2026-04-25 12:33 | 45.16740 | 12.17917 | 11000 ft | 286 kts | 321° |
| 2026-04-25 12:33 | 45.18328 | 12.16238 | 10722 ft | 283 kts | 321° |
| 2026-04-25 12:33 | 45.19896 | 12.14571 | 10432 ft | 281 kts | 321° |
| 2026-04-25 12:33 | 45.21460 | 12.12916 | 10194 ft | 278 kts | 321° |
| 2026-04-25 12:34 | 45.22986 | 12.11302 | 10069 ft | 271 kts | 321° |
| 2026-04-25 12:34 | 45.24495 | 12.09701 | 9761 ft | 270 kts | 321° |
| 2026-04-25 12:34 | 45.25991 | 12.08111 | 9475 ft | 268 kts | 322° |
| 2026-04-25 12:34 | 45.27009 | 12.07127 | 9300 ft | 266 kts | 324° |
| 2026-04-25 12:35 | 45.28979 | 12.05035 | 8975 ft | 262 kts | 320° |
| 2026-04-25 12:35 | 45.30419 | 12.03450 | 8698 ft | 261 kts | 320° |
| 2026-04-25 12:35 | 45.31859 | 12.01889 | 8439 ft | 259 kts | 321° |
| 2026-04-25 12:35 | 45.33292 | 12.00349 | 8160 ft | 258 kts | 321° |
| 2026-04-25 12:36 | 45.34724 | 11.98818 | 7907 ft | 259 kts | 321° |
| 2026-04-25 12:36 | 45.36182 | 11.97261 | 7652 ft | 264 kts | 321° |
| 2026-04-25 12:36 | 45.37649 | 11.95694 | 7371 ft | 263 kts | 321° |
| 2026-04-25 12:36 | 45.39109 | 11.94134 | 7105 ft | 261 kts | 321° |
| 2026-04-25 12:37 | 45.40559 | 11.92583 | 6836 ft | 260 kts | 321° |
| 2026-04-25 12:37 | 45.42000 | 11.91040 | 6561 ft | 259 kts | 321° |
| 2026-04-25 12:37 | 45.43438 | 11.89495 | 6253 ft | 259 kts | 321° |
| 2026-04-25 12:37 | 45.44876 | 11.87949 | 5976 ft | 259 kts | 321° |
| 2026-04-25 12:38 | 45.46312 | 11.86406 | 5698 ft | 258 kts | 321° |
| 2026-04-25 12:38 | 45.47735 | 11.84869 | 5445 ft | 254 kts | 320° |
| 2026-04-25 12:38 | 45.49114 | 11.83403 | 5318 ft | 240 kts | 321° |
| 2026-04-25 12:38 | 45.50435 | 11.81991 | 5192 ft | 236 kts | 323° |
| 2026-04-25 12:39 | 45.51961 | 11.81177 | 5080 ft | 238 kts | 354° |
| 2026-04-25 12:39 | 45.53588 | 11.81576 | 4911 ft | 242 kts | 22° |
| 2026-04-25 12:39 | 45.54811 | 11.83219 | 4681 ft | 248 kts | 58° |
| 2026-04-25 12:39 | 45.55649 | 11.85376 | 4454 ft | 249 kts | 60° |
| 2026-04-25 12:40 | 45.56420 | 11.87552 | 4169 ft | 244 kts | 68° |
| 2026-04-25 12:40 | 45.57029 | 11.89768 | 3978 ft | 233 kts | 68° |
| 2026-04-25 12:40 | 45.57602 | 11.91870 | 3815 ft | 226 kts | 71° |
| 2026-04-25 12:40 | 45.58129 | 11.93940 | 3559 ft | 219 kts | 70° |
| 2026-04-25 12:41 | 45.58699 | 11.95923 | 3288 ft | 212 kts | 65° |
| 2026-04-25 12:41 | 45.59197 | 11.97872 | 3000 ft | 208 kts | 77° |
| 2026-04-25 12:41 | 45.59661 | 11.99808 | 2748 ft | 205 kts | 70° |
| 2026-04-25 12:41 | 45.60215 | 12.01683 | 2470 ft | 202 kts | 69° |
| 2026-04-25 12:42 | 45.60653 | 12.03546 | 2183 ft | 194 kts | 76° |
| 2026-04-25 12:42 | 45.60940 | 12.04723 | 2040 ft | 186 kts | 70° |
| 2026-04-25 12:42 | 45.61573 | 12.06935 | 1694 ft | 174 kts | 71° |
| 2026-04-25 12:42 | 45.61965 | 12.08486 | 1513 ft | 158 kts | 72° |
| 2026-04-25 12:43 | 45.62338 | 12.09922 | 1299 ft | 153 kts | 71° |
| 2026-04-25 12:43 | 45.62712 | 12.11308 | 1086 ft | 147 kts | 72° |
| 2026-04-25 12:43 | 45.63440 | 12.14083 | 685 ft | 148 kts | 71° |
| 2026-04-25 12:44 | 45.63799 | 12.15433 | 471 ft | 143 kts | 71° |
| 2026-04-25 12:44 | 45.64154 | 12.16752 | 290 ft | 142 kts | 72° |
| 2026-04-25 12:44 | 45.64818 | 12.19282 | 62 ft | 92 kts | 69° |
| 2026-04-25 12:45 | 45.64958 | 12.19813 | 59 ft | 48 kts | 69° |
| 2026-04-25 12:45 | 45.65050 | 12.20125 | 61 ft | 27 kts | 51° |
| 2026-04-25 12:45 | 45.65219 | 12.20278 | 57 ft | 6 kts | 24° |
| 2026-04-25 12:46 | 45.65257 | 12.20303 | 62 ft | 6 kts | 26° |
| 2026-04-25 12:46 | 45.65283 | 12.20334 | 57 ft | 3 kts | 43° |
| 2026-04-25 12:46 | 45.65306 | 12.20342 | 58 ft | 4 kts | 359° |
| 2026-04-25 12:46 | 45.65324 | 12.20336 | 57 ft | 2 kts | 340° |
| 2026-04-25 12:47 | 45.65335 | 12.20331 | 59 ft | 1 kts | 340° |
| 2026-04-25 12:47 | 45.65342 | 12.20327 | 61 ft | 1 kts | 340° |
| 2026-04-25 12:47 | 45.65349 | 12.20323 | 55 ft | 1 kts | 339° |